createdAt,value
2022-08-28T00:01:41.517Z,15.21
2022-08-28T00:04:43.323Z,15.13
2022-08-28T00:07:47.786Z,15.15
2022-08-28T00:10:50.049Z,15.20
2022-08-28T00:13:51.929Z,15.20
2022-08-28T00:16:54.709Z,15.15
2022-08-28T00:19:56.387Z,15.19
2022-08-28T00:23:00.308Z,15.21
2022-08-28T00:26:02.283Z,15.20
2022-08-28T00:29:06.071Z,15.26
2022-08-28T00:32:08.868Z,15.34
2022-08-28T00:35:11.435Z,15.39
2022-08-28T00:38:14.157Z,15.35
2022-08-28T00:41:16.839Z,15.38
2022-08-28T00:44:28.930Z,15.40
2022-08-28T00:47:30.676Z,15.44
2022-08-28T00:50:54.422Z,15.47
2022-08-28T00:54:07.346Z,15.40
2022-08-28T00:57:13.283Z,15.34
2022-08-28T01:00:23.104Z,15.36
2022-08-28T01:03:26.577Z,15.40
2022-08-28T01:06:28.467Z,15.36
2022-08-28T01:09:31.949Z,15.35
2022-08-28T01:12:35.040Z,15.33
2022-08-28T01:15:38.562Z,15.28
2022-08-28T01:18:42.007Z,15.26
2022-08-28T01:21:55.408Z,15.31
2022-08-28T01:24:59.441Z,15.34
2022-08-28T01:28:03.467Z,15.33
2022-08-28T01:31:05.429Z,15.31
2022-08-28T01:34:10.465Z,15.28
2022-08-28T01:37:12.291Z,15.35
2022-08-28T01:40:20.411Z,15.28
2022-08-28T01:43:24.279Z,15.25
2022-08-28T01:46:26.098Z,15.27
2022-08-28T01:49:29.501Z,15.24
2022-08-28T01:52:31.521Z,15.22
2022-08-28T01:55:35.839Z,15.24
2022-08-28T01:58:39.551Z,15.27
2022-08-28T02:01:42.558Z,15.22
2022-08-28T02:04:48.051Z,15.24
2022-08-28T02:07:50.896Z,15.23
2022-08-28T02:10:52.950Z,15.24
2022-08-28T02:13:54.658Z,15.17
2022-08-28T02:16:58.304Z,15.19
2022-08-28T02:20:00.250Z,15.15
2022-08-28T02:23:02.721Z,15.16
2022-08-28T02:26:04.316Z,15.16
2022-08-28T02:29:06.440Z,15.15
2022-08-28T02:32:08.217Z,15.10
2022-08-28T02:35:13.253Z,15.05
2022-08-28T02:38:14.911Z,14.96
2022-08-28T02:41:16.874Z,14.83
2022-08-28T02:44:18.672Z,14.63
2022-08-28T02:47:20.714Z,14.54
2022-08-28T02:50:24.064Z,14.56
2022-08-28T02:53:25.629Z,14.57
2022-08-28T02:56:27.729Z,14.62
2022-08-28T02:59:30.323Z,14.62
2022-08-28T03:02:32.414Z,14.60
2022-08-28T03:05:34.177Z,14.65
2022-08-28T03:08:35.991Z,14.57
2022-08-28T03:11:38.011Z,14.52
2022-08-28T03:14:39.914Z,14.50
2022-08-28T03:17:41.984Z,14.50
2022-08-28T03:20:44.889Z,14.52
2022-08-28T03:23:47.346Z,14.50
2022-08-28T03:26:48.994Z,14.40
2022-08-28T03:29:50.681Z,14.25
2022-08-28T03:32:52.886Z,14.20
2022-08-28T03:35:55.613Z,14.21
2022-08-28T03:39:00.517Z,14.17
2022-08-28T03:42:02.139Z,14.11
2022-08-28T03:45:06.703Z,14.04
2022-08-28T03:48:08.393Z,14.05
2022-08-28T03:51:14.321Z,14.05
2022-08-28T03:54:17.048Z,14.09
2022-08-28T03:57:23.089Z,14.14
2022-08-28T04:00:24.963Z,14.10
2022-08-28T04:03:26.702Z,14.07
2022-08-28T04:06:29.012Z,14.05
2022-08-28T04:09:30.729Z,14.03
2022-08-28T04:12:35.236Z,14.02
2022-08-28T04:15:37.381Z,13.96
2022-08-28T04:18:41.491Z,14.02
2022-08-28T04:21:43.083Z,13.96
2022-08-28T04:24:45.946Z,13.92
2022-08-28T04:27:48.642Z,13.96
2022-08-28T04:30:56.267Z,14.03
2022-08-28T04:33:59.390Z,14.09
2022-08-28T04:37:01.033Z,14.16
2022-08-28T04:40:07.852Z,14.20
2022-08-28T04:43:09.794Z,14.30
2022-08-28T04:46:14.863Z,14.31
2022-08-28T04:49:17.004Z,14.34
2022-08-28T04:52:18.722Z,14.44
2022-08-28T04:55:33.823Z,14.48
2022-08-28T04:58:44.174Z,14.47
2022-08-28T05:01:46.652Z,14.44
2022-08-28T05:04:48.434Z,14.44
2022-08-28T05:07:50.544Z,14.53
2022-08-28T05:10:53.133Z,14.53
2022-08-28T05:13:55.935Z,14.48
2022-08-28T05:16:58.489Z,14.55
2022-08-28T05:20:00.078Z,14.64
2022-08-28T05:23:01.682Z,14.71
2022-08-28T05:26:03.592Z,14.70
2022-08-28T05:29:05.636Z,14.68
2022-08-28T05:32:07.472Z,14.80
2022-08-28T05:35:09.313Z,14.80
2022-08-28T05:38:12.910Z,14.86
2022-08-28T05:41:23.123Z,14.98
2022-08-28T05:44:24.945Z,15.11
2022-08-28T05:47:26.623Z,15.23
2022-08-28T05:50:28.280Z,15.30
2022-08-28T05:53:30.276Z,15.41
2022-08-28T05:56:35.774Z,15.52
2022-08-28T05:59:37.749Z,15.62
2022-08-28T06:02:44.501Z,15.73
2022-08-28T06:05:46.188Z,15.79
2022-08-28T06:08:58.639Z,15.90
2022-08-28T06:12:02.742Z,16.01
2022-08-28T06:15:05.578Z,16.07
2022-08-28T06:18:07.213Z,16.11
2022-08-28T06:21:09.258Z,16.06
2022-08-28T06:24:12.037Z,16.04
2022-08-28T06:27:13.815Z,16.09
2022-08-28T06:30:15.727Z,16.18
2022-08-28T06:33:18.519Z,16.24
2022-08-28T06:36:20.137Z,16.33
2022-08-28T06:39:23.152Z,16.49
2022-08-28T06:42:25.372Z,16.63
2022-08-28T06:45:27.597Z,16.75
2022-08-28T06:48:29.361Z,16.83
2022-08-28T06:51:31.112Z,16.93
2022-08-28T06:54:32.933Z,17.09
2022-08-28T06:57:34.758Z,17.11
2022-08-28T07:00:37.216Z,17.10
2022-08-28T07:03:44.077Z,17.23
2022-08-28T07:06:53.821Z,17.08
2022-08-28T07:09:56.389Z,16.83
2022-08-28T07:13:00.610Z,16.75
2022-08-28T07:16:03.040Z,16.98
2022-08-28T07:19:10.441Z,17.16
2022-08-28T07:22:12.547Z,17.23
2022-08-28T07:25:14.167Z,17.27
2022-08-28T07:28:17.075Z,17.36
2022-08-28T07:31:22.970Z,17.23
2022-08-28T07:34:27.167Z,17.14
2022-08-28T07:37:29.063Z,17.00
2022-08-28T07:40:31.609Z,16.81
2022-08-28T07:43:51.582Z,16.52
2022-08-28T07:46:55.021Z,16.46
2022-08-28T07:49:57.708Z,16.51
2022-08-28T07:52:59.825Z,16.61
2022-08-28T07:56:01.797Z,16.99
2022-08-28T07:59:03.854Z,17.34
2022-08-28T08:02:06.926Z,17.62
2022-08-28T08:05:10.371Z,17.74
2022-08-28T08:08:16.064Z,17.56
2022-08-28T08:11:18.797Z,17.46
2022-08-28T08:14:21.391Z,17.41
2022-08-28T08:17:23.116Z,17.51
2022-08-28T08:20:24.942Z,17.64
2022-08-28T08:23:26.839Z,17.84
2022-08-28T08:26:29.676Z,18.06
2022-08-28T08:29:35.969Z,18.27
2022-08-28T08:32:40.078Z,18.66
2022-08-28T08:35:42.043Z,18.64
2022-08-28T08:38:44.777Z,18.57
2022-08-28T08:41:53.648Z,18.62
2022-08-28T08:44:59.074Z,18.29
2022-08-28T08:48:01.309Z,18.06
2022-08-28T08:51:19.799Z,18.02
2022-08-28T08:54:22.018Z,18.26
2022-08-28T08:57:24.921Z,18.62
2022-08-28T09:00:28.071Z,19.06
2022-08-28T09:03:57.264Z,19.38
2022-08-28T09:07:21.199Z,19.32
2022-08-28T09:10:24.981Z,18.97
2022-08-28T09:14:05.446Z,19.14
2022-08-28T09:17:08.581Z,19.55
2022-08-28T09:20:15.501Z,19.47
2022-08-28T09:23:17.796Z,19.17
2022-08-28T09:26:25.415Z,19.17
2022-08-28T09:29:45.008Z,19.72
2022-08-28T09:33:00.898Z,20.24
2022-08-28T09:36:32.072Z,19.86
2022-08-28T09:39:35.957Z,19.45
2022-08-28T09:42:56.493Z,19.64
2022-08-28T09:46:16.592Z,20.21
2022-08-28T09:49:31.092Z,20.37
2022-08-28T09:52:34.252Z,19.96
2022-08-28T09:55:54.898Z,19.70
2022-08-28T09:59:02.294Z,19.95
2022-08-28T10:02:37.286Z,20.27
2022-08-28T10:05:52.168Z,20.09
2022-08-28T10:09:22.575Z,19.97
2022-08-28T10:12:49.252Z,20.23
2022-08-28T10:16:16.848Z,20.32
2022-08-28T10:19:48.195Z,20.23
2022-08-28T10:23:07.577Z,20.11
2022-08-28T10:26:21.494Z,19.82
2022-08-28T10:29:51.082Z,19.72
2022-08-28T10:33:17.551Z,20.11
2022-08-28T10:36:33.488Z,20.33
2022-08-28T10:40:02.247Z,20.07
2022-08-28T10:43:48.027Z,20.03
2022-08-28T10:46:55.576Z,20.21
2022-08-28T10:50:02.926Z,20.25
2022-08-28T10:53:15.257Z,20.23
2022-08-28T10:56:30.903Z,20.32
2022-08-28T10:59:33.593Z,20.60
2022-08-28T11:02:57.243Z,21.05
2022-08-28T11:06:04.250Z,21.28
2022-08-28T11:09:26.687Z,21.24
2022-08-28T11:12:28.418Z,21.07
2022-08-28T11:15:37.013Z,20.95
2022-08-28T11:18:53.202Z,20.83
2022-08-28T11:22:01.050Z,20.94
2022-08-28T11:25:26.648Z,20.90
2022-08-28T11:28:34.755Z,20.80
2022-08-28T11:31:39.694Z,20.86
2022-08-28T11:34:58.848Z,20.95
2022-08-28T11:38:00.495Z,21.04
2022-08-28T11:41:17.560Z,21.06
2022-08-28T11:44:28.419Z,20.91
2022-08-28T11:47:36.194Z,20.86
2022-08-28T11:51:02.504Z,20.80
2022-08-28T11:54:42.742Z,20.83
2022-08-28T11:58:16.164Z,20.96
2022-08-28T12:01:29.436Z,21.21
2022-08-28T12:04:42.674Z,21.30
2022-08-28T12:07:50.326Z,21.44
2022-08-28T12:10:54.624Z,21.58
2022-08-28T12:13:56.536Z,21.62
2022-08-28T12:17:01.487Z,21.69
2022-08-28T12:20:41.567Z,21.73
2022-08-28T12:23:44.883Z,21.73
2022-08-28T12:26:53.314Z,21.85
2022-08-28T12:30:00.995Z,21.91
2022-08-28T12:33:32.119Z,22.00
2022-08-28T12:36:33.999Z,22.21
2022-08-28T12:39:38.085Z,22.43
2022-08-28T12:43:05.627Z,22.61
2022-08-28T12:46:19.727Z,22.77
2022-08-28T12:49:37.886Z,23.05
2022-08-28T12:52:48.467Z,23.20
2022-08-28T12:55:50.205Z,23.01
2022-08-28T12:58:52.530Z,23.13
2022-08-28T13:01:54.518Z,23.32
2022-08-28T13:05:06.665Z,23.48
2022-08-28T13:08:11.593Z,23.64
2022-08-28T13:11:19.539Z,23.58
2022-08-28T13:14:38.400Z,23.67
2022-08-28T13:17:50.015Z,23.84
2022-08-28T13:20:51.774Z,23.74
2022-08-28T13:23:56.677Z,23.64
2022-08-28T13:27:19.367Z,23.75
2022-08-28T13:30:33.537Z,23.97
2022-08-28T13:33:35.282Z,23.97
2022-08-28T13:36:59.852Z,24.03
2022-08-28T13:40:05.514Z,24.45
2022-08-28T13:43:11.689Z,24.39
2022-08-28T13:46:14.025Z,24.31
2022-08-28T13:49:16.948Z,24.21
2022-08-28T13:52:19.221Z,24.41
2022-08-28T13:55:22.099Z,24.37
2022-08-28T13:58:27.057Z,24.23
2022-08-28T14:01:48.936Z,24.40
2022-08-28T14:04:50.882Z,24.58
2022-08-28T14:07:52.985Z,24.63
2022-08-28T14:10:55.076Z,24.57
2022-08-28T14:13:56.729Z,24.85
2022-08-28T14:16:59.342Z,25.04
2022-08-28T14:20:01.680Z,24.87
2022-08-28T14:23:03.259Z,24.62
2022-08-28T14:26:05.984Z,24.38
2022-08-28T14:29:10.022Z,24.50
2022-08-28T14:32:12.787Z,24.59
2022-08-28T14:35:14.686Z,24.68
2022-08-28T14:38:17.376Z,24.56
2022-08-28T14:41:19.122Z,24.60
2022-08-28T14:44:22.623Z,24.51
2022-08-28T14:47:25.177Z,24.56
2022-08-28T14:50:27.072Z,24.74
2022-08-28T14:53:30.140Z,24.78
2022-08-28T14:56:32.556Z,24.96
2022-08-28T14:59:34.261Z,25.09
2022-08-28T15:02:36.134Z,24.83
2022-08-28T15:05:38.736Z,24.78
2022-08-28T15:08:41.593Z,24.83
2022-08-28T15:11:44.449Z,24.80
2022-08-28T15:14:54.653Z,24.74
2022-08-28T15:17:59.498Z,24.82
2022-08-28T15:21:01.244Z,25.01
2022-08-28T15:24:04.744Z,24.97
2022-08-28T15:27:07.064Z,24.93
2022-08-28T15:30:09.642Z,24.91
2022-08-28T15:33:11.667Z,25.03
2022-08-28T15:36:13.616Z,24.91
2022-08-28T15:39:34.065Z,24.84
2022-08-28T15:42:35.807Z,24.94
2022-08-28T15:45:39.226Z,24.98
2022-08-28T15:48:41.207Z,25.04
2022-08-28T15:51:42.946Z,25.22
2022-08-28T15:54:44.673Z,25.17
2022-08-28T15:57:46.804Z,24.93
2022-08-28T16:00:48.459Z,24.97
2022-08-28T16:03:50.357Z,24.86
2022-08-28T16:07:00.494Z,24.92
2022-08-28T16:10:07.167Z,24.86
2022-08-28T16:13:08.968Z,24.20
2022-08-28T16:16:10.841Z,23.93
2022-08-28T16:19:12.584Z,24.03
2022-08-28T16:22:15.943Z,24.07
2022-08-28T16:25:18.131Z,23.93
2022-08-28T16:28:19.829Z,24.04
2022-08-28T16:31:21.659Z,24.18
2022-08-28T16:34:26.091Z,23.99
2022-08-28T16:37:39.567Z,23.84
2022-08-28T16:40:43.523Z,23.78
2022-08-28T16:43:45.966Z,23.63
2022-08-28T16:46:47.863Z,23.56
2022-08-28T16:49:50.371Z,23.65
2022-08-28T16:52:52.432Z,23.56
2022-08-28T16:55:54.184Z,23.49
2022-08-28T16:58:56.991Z,23.35
2022-08-28T17:01:58.743Z,23.02
2022-08-28T17:05:01.876Z,22.89
2022-08-28T17:08:03.516Z,22.85
2022-08-28T17:11:06.658Z,22.41
2022-08-28T17:14:11.037Z,22.07
2022-08-28T17:17:12.647Z,22.07
2022-08-28T17:20:47.838Z,22.07
2022-08-28T17:23:49.761Z,21.98
2022-08-28T17:26:51.586Z,21.85
2022-08-28T17:29:53.435Z,21.77
2022-08-28T17:32:55.232Z,21.56
2022-08-28T17:35:59.667Z,21.43
2022-08-28T17:39:04.070Z,21.43
2022-08-28T17:42:06.267Z,21.28
2022-08-28T17:45:08.778Z,21.18
2022-08-28T17:48:10.436Z,21.03
2022-08-28T17:51:12.077Z,20.79
2022-08-28T17:54:17.717Z,20.71
2022-08-28T17:57:19.425Z,20.47
2022-08-28T18:00:21.318Z,20.21
2022-08-28T18:03:23.388Z,20.01
2022-08-28T18:06:25.113Z,19.76
2022-08-28T18:09:26.708Z,19.62
2022-08-28T18:12:28.776Z,19.46
2022-08-28T18:15:31.281Z,19.22
2022-08-28T18:18:36.616Z,19.01
2022-08-28T18:21:38.777Z,18.90
2022-08-28T18:24:41.039Z,18.75
2022-08-28T18:27:42.829Z,18.61
2022-08-28T18:30:45.972Z,18.54
2022-08-28T18:33:47.693Z,18.38
2022-08-28T18:36:49.348Z,18.31
2022-08-28T18:39:51.707Z,18.23
2022-08-28T18:42:55.952Z,18.14
2022-08-28T18:46:00.415Z,18.04
2022-08-28T18:49:02.258Z,18.02
2022-08-28T18:52:04.161Z,17.89
2022-08-28T18:55:07.181Z,17.76
2022-08-28T18:58:11.146Z,17.68
2022-08-28T19:01:17.326Z,17.64
2022-08-28T19:04:19.095Z,17.71
2022-08-28T19:07:20.787Z,17.67
2022-08-28T19:10:33.478Z,17.65
2022-08-28T19:13:36.343Z,17.57
2022-08-28T19:16:39.342Z,17.48
2022-08-28T19:19:40.872Z,17.38
2022-08-28T19:22:43.187Z,17.34
2022-08-28T19:28:49.256Z,17.25
2022-08-28T19:31:52.350Z,17.09
2022-08-28T19:34:54.139Z,17.00
2022-08-28T19:37:56.054Z,16.96
2022-08-28T19:40:58.176Z,16.89
2022-08-28T19:43:59.901Z,16.90
2022-08-28T19:47:01.946Z,16.86
2022-08-28T19:50:07.189Z,16.79
2022-08-28T19:53:10.008Z,16.70
2022-08-28T19:56:11.839Z,16.62
2022-08-28T19:59:13.646Z,16.54
2022-08-28T20:02:15.479Z,16.52
2022-08-28T20:05:17.552Z,16.43
2022-08-28T20:08:20.150Z,16.43
2022-08-28T20:11:30.784Z,16.34
2022-08-28T20:14:34.277Z,16.37
2022-08-28T20:17:43.846Z,16.25
2022-08-28T20:20:48.945Z,16.19
2022-08-28T20:23:50.803Z,16.13
2022-08-28T20:26:53.135Z,16.08
2022-08-28T20:29:55.328Z,16.02
2022-08-28T20:32:57.538Z,15.94
2022-08-28T20:36:04.355Z,15.87
2022-08-28T20:39:07.313Z,15.80
2022-08-28T20:42:09.878Z,15.74
2022-08-28T20:45:12.097Z,15.68
2022-08-28T20:48:14.176Z,15.63
2022-08-28T20:51:15.902Z,15.60
2022-08-28T20:54:17.758Z,15.53
2022-08-28T20:57:21.408Z,15.47
2022-08-28T21:00:25.519Z,15.41
2022-08-28T21:03:28.450Z,15.35
2022-08-28T21:06:31.216Z,15.27
2022-08-28T21:10:03.769Z,15.23
2022-08-28T21:12:54.984Z,15.22
2022-08-28T21:15:56.813Z,15.20
2022-08-28T21:19:15.305Z,15.13
2022-08-28T21:22:22.941Z,15.03
2022-08-28T21:25:25.291Z,14.95
2022-08-28T21:28:28.094Z,14.88
2022-08-28T21:31:29.838Z,14.80
2022-08-28T21:34:31.542Z,14.76
2022-08-28T21:37:33.962Z,14.68
2022-08-28T21:40:35.685Z,14.67
2022-08-28T21:43:38.682Z,14.57
2022-08-28T21:46:41.090Z,14.48
2022-08-28T21:49:42.955Z,14.36
2022-08-28T21:52:45.584Z,14.24
2022-08-28T21:55:51.928Z,14.18
2022-08-28T21:58:56.151Z,14.11
2022-08-28T22:01:58.595Z,14.10
2022-08-28T22:05:00.466Z,14.06
2022-08-28T22:08:02.456Z,14.01
2022-08-28T22:11:04.543Z,13.98
2022-08-28T22:14:06.258Z,13.95
2022-08-28T22:17:11.600Z,13.95
2022-08-28T22:20:14.096Z,13.90
2022-08-28T22:23:17.713Z,13.92
2022-08-28T22:26:21.113Z,13.87
2022-08-28T22:29:23.268Z,13.82
2022-08-28T22:32:26.808Z,13.87
2022-08-28T22:35:28.772Z,13.88
2022-08-28T22:38:30.801Z,13.87
2022-08-28T22:41:32.993Z,13.88
2022-08-28T22:44:34.920Z,13.88
2022-08-28T22:47:36.828Z,13.86
2022-08-28T22:50:38.556Z,13.78
2022-08-28T22:53:43.835Z,13.78
2022-08-28T22:56:45.689Z,13.84
2022-08-28T22:59:47.472Z,13.82
2022-08-28T23:02:50.050Z,13.81
2022-08-28T23:05:52.062Z,13.77
2022-08-28T23:08:53.884Z,13.77
2022-08-28T23:11:55.643Z,13.75
2022-08-28T23:15:04.538Z,13.72
2022-08-28T23:18:06.557Z,13.67
2022-08-28T23:21:10.008Z,13.67
2022-08-28T23:24:15.942Z,13.62
2022-08-28T23:27:36.304Z,13.56
2022-08-28T23:30:39.212Z,13.51
2022-08-28T23:33:41.510Z,13.49
2022-08-28T23:36:43.477Z,13.49
2022-08-28T23:39:45.860Z,13.42
2022-08-28T23:42:48.091Z,13.41
2022-08-28T23:45:50.506Z,13.39
2022-08-28T23:48:52.275Z,13.40
2022-08-28T23:51:54.131Z,13.35
2022-08-28T23:54:56.031Z,13.34
2022-08-28T23:57:57.958Z,13.32
